createdAt,value
2018-04-23T00:00:55.274Z,0.00
2018-04-23T00:01:55.274Z,0.00
2018-04-23T00:02:55.273Z,0.00
2018-04-23T00:03:55.273Z,0.00
2018-04-23T00:04:55.272Z,0.00
2018-04-23T00:05:55.273Z,0.00
2018-04-23T00:06:55.282Z,0.00
2018-04-23T00:07:55.277Z,0.00
2018-04-23T00:08:55.273Z,0.00
2018-04-23T00:09:55.272Z,0.00
2018-04-23T00:10:55.276Z,0.00
2018-04-23T00:11:55.275Z,0.00
2018-04-23T00:12:55.270Z,0.00
2018-04-23T00:13:55.270Z,0.00
2018-04-23T00:14:55.271Z,0.00
2018-04-23T00:15:55.272Z,0.00
2018-04-23T00:16:55.269Z,0.00
2018-04-23T00:17:55.274Z,0.00
2018-04-23T00:18:55.270Z,0.00
2018-04-23T00:19:55.270Z,0.00
2018-04-23T00:20:55.270Z,0.00
2018-04-23T00:21:55.277Z,0.00
2018-04-23T00:22:55.272Z,0.00
2018-04-23T00:23:55.269Z,0.00
2018-04-23T00:24:55.273Z,0.00
2018-04-23T00:25:55.272Z,0.00
2018-04-23T00:26:55.269Z,0.00
2018-04-23T00:27:55.269Z,0.00
2018-04-23T00:28:55.271Z,0.00
2018-04-23T00:29:55.271Z,0.00
2018-04-23T00:30:55.267Z,0.00
2018-04-23T00:31:55.268Z,0.00
2018-04-23T00:32:55.266Z,0.00
2018-04-23T00:33:55.265Z,0.00
2018-04-23T00:34:55.266Z,0.00
2018-04-23T00:35:55.265Z,0.00
2018-04-23T00:36:55.268Z,0.00
2018-04-23T00:37:55.267Z,0.00
2018-04-23T00:38:55.265Z,0.00
2018-04-23T00:39:55.263Z,0.00
2018-04-23T00:40:55.261Z,0.00
2018-04-23T00:41:55.261Z,0.00
2018-04-23T00:42:55.260Z,0.00
2018-04-23T00:43:55.259Z,0.00
2018-04-23T00:44:55.261Z,0.00
2018-04-23T00:45:55.257Z,0.00
2018-04-23T00:46:55.256Z,0.00
2018-04-23T00:47:55.256Z,0.00
2018-04-23T00:48:55.258Z,0.00
2018-04-23T00:49:55.258Z,0.00
2018-04-23T00:50:55.257Z,0.00
2018-04-23T00:51:55.256Z,0.00
2018-04-23T00:52:55.251Z,0.00
2018-04-23T00:53:55.250Z,0.00
2018-04-23T00:54:55.249Z,0.00
2018-04-23T00:55:55.249Z,0.00
2018-04-23T00:56:55.247Z,0.00
2018-04-23T00:57:55.246Z,0.00
2018-04-23T00:58:55.247Z,0.00
2018-04-23T00:59:55.247Z,0.00
2018-04-23T01:00:55.244Z,0.00
2018-04-23T01:01:55.243Z,0.00
2018-04-23T01:02:55.245Z,0.00
2018-04-23T01:03:55.246Z,0.00
2018-04-23T01:04:55.240Z,0.00
2018-04-23T01:05:55.239Z,0.00
2018-04-23T01:06:55.237Z,0.00
2018-04-23T01:07:55.236Z,0.00
2018-04-23T01:08:55.240Z,0.00
2018-04-23T01:09:55.239Z,0.00
2018-04-23T01:10:55.233Z,0.00
2018-04-23T01:11:55.233Z,0.00
2018-04-23T01:12:55.231Z,0.00
2018-04-23T01:13:55.231Z,0.00
2018-04-23T01:14:55.229Z,0.00
2018-04-23T01:15:55.229Z,0.00
2018-04-23T01:16:55.226Z,0.00
2018-04-23T01:17:55.230Z,0.00
2018-04-23T01:18:55.226Z,0.00
2018-04-23T01:19:55.225Z,0.00
2018-04-23T01:20:55.227Z,0.00
2018-04-23T01:21:55.226Z,0.00
2018-04-23T01:22:55.227Z,0.00
2018-04-23T01:23:55.225Z,0.00
2018-04-23T01:24:55.218Z,0.00
2018-04-23T01:25:55.221Z,0.00
2018-04-23T01:26:55.218Z,0.00
2018-04-23T01:27:55.217Z,0.00
2018-04-23T01:28:55.215Z,0.00
2018-04-23T01:29:55.215Z,0.00
2018-04-23T01:30:55.217Z,0.00
2018-04-23T01:31:55.213Z,0.00
2018-04-23T01:32:55.211Z,0.00
2018-04-23T01:33:55.211Z,0.00
2018-04-23T01:34:55.214Z,0.00
2018-04-23T01:35:55.212Z,0.00
2018-04-23T01:36:55.206Z,0.00
2018-04-23T01:37:55.205Z,0.00
2018-04-23T01:38:55.204Z,0.00
2018-04-23T01:39:55.204Z,0.00
2018-04-23T01:40:55.201Z,0.00
2018-04-23T01:41:55.201Z,0.00
2018-04-23T01:42:55.204Z,0.00
2018-04-23T01:43:55.203Z,0.00
2018-04-23T01:44:55.197Z,0.00
2018-04-23T01:45:55.195Z,0.00
2018-04-23T01:46:55.199Z,0.00
2018-04-23T01:47:55.198Z,0.00
2018-04-23T01:48:55.193Z,0.00
2018-04-23T01:49:55.190Z,0.00
2018-04-23T01:50:55.190Z,0.00
2018-04-23T01:51:55.190Z,0.00
2018-04-23T01:52:55.190Z,0.00
2018-04-23T01:53:55.187Z,0.00
2018-04-23T01:54:55.185Z,0.00
2018-04-23T01:55:55.185Z,0.00
2018-04-23T01:56:55.183Z,0.00
2018-04-23T01:57:55.182Z,0.00
2018-04-23T01:58:55.180Z,0.00
2018-04-23T01:59:55.180Z,0.00
2018-04-23T02:00:55.183Z,0.00
2018-04-23T02:01:55.180Z,0.00
2018-04-23T02:02:55.176Z,0.00
2018-04-23T02:03:55.174Z,0.00
2018-04-23T02:04:55.176Z,0.00
2018-04-23T02:05:55.178Z,0.00
2018-04-23T02:06:55.171Z,0.00
2018-04-23T02:07:55.168Z,0.00
2018-04-23T02:08:55.168Z,0.00
2018-04-23T02:09:55.170Z,0.00
2018-04-23T02:10:55.165Z,0.00
2018-04-23T02:11:55.165Z,0.00
2018-04-23T02:12:55.161Z,0.00
2018-04-23T02:13:55.161Z,0.00
2018-04-23T02:14:55.164Z,0.00
2018-04-23T02:15:55.163Z,0.00
2018-04-23T02:16:55.156Z,0.00
2018-04-23T02:17:55.155Z,0.00
2018-04-23T02:18:55.158Z,0.00
2018-04-23T02:19:55.161Z,0.00
2018-04-23T02:20:55.151Z,0.00
2018-04-23T02:21:55.151Z,0.00
2018-04-23T02:22:55.152Z,0.00
2018-04-23T02:23:55.148Z,0.00
2018-04-23T02:24:55.146Z,0.00
2018-04-23T02:25:55.146Z,0.00
2018-04-23T02:26:55.144Z,0.00
2018-04-23T02:27:55.144Z,0.00
2018-04-23T02:28:55.142Z,0.00
2018-04-23T02:29:55.140Z,0.00
2018-04-23T02:30:55.139Z,0.00
2018-04-23T02:31:55.138Z,0.00
2018-04-23T02:32:55.141Z,0.00
2018-04-23T02:33:55.140Z,0.00
2018-04-23T02:34:55.137Z,0.00
2018-04-23T02:35:55.134Z,0.00
2018-04-23T02:36:55.137Z,0.00
2018-04-23T02:37:55.134Z,0.00
2018-04-23T02:38:55.131Z,0.00
2018-04-23T02:39:55.137Z,0.00
2018-04-23T02:40:55.128Z,0.00
2018-04-23T02:41:55.128Z,0.00
2018-04-23T02:42:55.126Z,0.00
2018-04-23T02:43:55.125Z,0.00
2018-04-23T02:44:55.128Z,0.00
2018-04-23T02:45:55.126Z,0.00
2018-04-23T02:46:55.122Z,0.00
2018-04-23T02:47:55.121Z,0.00
2018-04-23T02:48:55.120Z,0.00
2018-04-23T02:49:55.118Z,0.00
2018-04-23T02:50:55.117Z,0.00
2018-04-23T02:51:55.118Z,0.00
2018-04-23T02:52:55.120Z,0.00
2018-04-23T02:53:55.114Z,0.00
2018-04-23T02:54:55.113Z,0.00
2018-04-23T02:55:55.113Z,0.00
2018-04-23T02:56:55.115Z,0.00
2018-04-23T02:57:55.118Z,0.00
2018-04-23T02:58:55.114Z,0.00
2018-04-23T02:59:55.113Z,0.00
2018-04-23T03:00:55.107Z,0.00
2018-04-23T03:01:55.107Z,0.00
2018-04-23T03:02:55.107Z,0.00
2018-04-23T03:03:55.106Z,0.00
2018-04-23T03:04:55.104Z,0.00
2018-04-23T03:05:55.103Z,0.00
2018-04-23T03:06:55.103Z,0.00
2018-04-23T03:07:55.101Z,0.00
2018-04-23T03:08:55.101Z,0.00
2018-04-23T03:09:55.100Z,0.00
2018-04-23T03:10:55.102Z,0.00
2018-04-23T03:11:55.101Z,0.00
2018-04-23T03:12:55.097Z,0.00
2018-04-23T03:13:55.095Z,0.00
2018-04-23T03:14:55.099Z,0.00
2018-04-23T03:15:55.093Z,0.00
2018-04-23T03:16:55.096Z,0.00
2018-04-23T03:17:55.095Z,0.00
2018-04-23T03:18:55.090Z,0.00
2018-04-23T03:19:55.089Z,0.00
2018-04-23T03:20:55.089Z,0.00
2018-04-23T03:21:55.088Z,0.00
2018-04-23T03:22:55.086Z,0.00
2018-04-23T03:23:55.085Z,0.00
2018-04-23T03:24:55.085Z,0.00
2018-04-23T03:25:55.083Z,0.00
2018-04-23T03:26:55.082Z,0.00
2018-04-23T03:27:55.081Z,0.00
2018-04-23T03:28:55.086Z,0.00
2018-04-23T03:29:55.086Z,0.00
2018-04-23T03:30:55.082Z,0.00
2018-04-23T03:31:55.082Z,0.00
2018-04-23T03:32:55.076Z,0.00
2018-04-23T03:33:55.075Z,0.00
2018-04-23T03:34:55.075Z,0.00
2018-04-23T03:35:55.075Z,0.00
2018-04-23T03:36:55.072Z,0.00
2018-04-23T03:37:55.075Z,0.00
2018-04-23T03:38:55.071Z,0.00
2018-04-23T03:39:55.070Z,0.00
2018-04-23T03:40:55.070Z,0.00
2018-04-23T03:41:55.068Z,0.00
2018-04-23T03:42:55.071Z,0.00
2018-04-23T03:43:55.072Z,0.00
2018-04-23T03:44:55.064Z,0.00
2018-04-23T03:45:55.064Z,0.00
2018-04-23T03:46:55.063Z,0.00
2018-04-23T03:47:55.063Z,0.00
2018-04-23T03:48:55.060Z,0.00
2018-04-23T03:49:55.060Z,0.00
2018-04-23T03:50:55.060Z,0.00
2018-04-23T03:51:55.059Z,0.00
2018-04-23T03:52:55.062Z,0.00
2018-04-23T03:53:55.060Z,0.00
2018-04-23T03:54:55.055Z,0.00
2018-04-23T03:55:55.055Z,0.00
2018-04-23T03:56:55.061Z,0.00
2018-04-23T03:57:55.056Z,0.00
2018-04-23T03:58:55.052Z,0.00
2018-04-23T03:59:55.051Z,0.00
2018-04-23T04:00:55.051Z,0.00
2018-04-23T04:01:55.050Z,0.00
2018-04-23T04:02:55.048Z,0.00
2018-04-23T04:03:55.050Z,0.00
2018-04-23T04:04:55.047Z,0.00
2018-04-23T04:05:55.046Z,0.00
2018-04-23T04:06:55.048Z,0.00
2018-04-23T04:07:55.047Z,0.00
2018-04-23T04:08:55.045Z,0.00
2018-04-23T04:09:55.041Z,0.00
2018-04-23T04:10:55.046Z,0.00
2018-04-23T04:11:55.047Z,0.00
2018-04-23T04:12:55.043Z,0.00
2018-04-23T04:13:55.037Z,0.00
2018-04-23T04:14:55.036Z,0.00
2018-04-23T04:15:55.035Z,0.00
2018-04-23T04:16:55.092Z,0.00
2018-04-23T04:17:55.032Z,0.00
2018-04-23T04:18:55.033Z,5.63
2018-04-23T04:19:55.031Z,5.63
2018-04-23T04:20:55.030Z,5.63
2018-04-23T04:21:55.028Z,5.63
2018-04-23T04:22:55.027Z,5.63
2018-04-23T04:23:55.028Z,11.25
2018-04-23T04:24:55.028Z,11.25
2018-04-23T04:25:55.027Z,11.25
2018-04-23T04:26:55.023Z,16.88
2018-04-23T04:27:55.022Z,16.88
2018-04-23T04:28:55.025Z,16.88
2018-04-23T04:29:55.023Z,11.25
2018-04-23T04:30:55.018Z,16.88
2018-04-23T04:31:55.017Z,16.88
2018-04-23T04:32:55.015Z,16.88
2018-04-23T04:33:55.014Z,16.88
2018-04-23T04:34:55.013Z,16.88
2018-04-23T04:35:55.013Z,16.88
2018-04-23T04:36:55.011Z,16.88
2018-04-23T04:37:55.009Z,16.88
2018-04-23T04:38:55.012Z,16.88
2018-04-23T04:39:55.011Z,16.88
2018-04-23T04:40:55.006Z,16.88
2018-04-23T04:41:55.006Z,22.50
2018-04-23T04:42:55.008Z,22.50
2018-04-23T04:43:55.018Z,22.50
2018-04-23T04:44:55.001Z,28.13
2018-04-23T04:45:54.999Z,28.13
2018-04-23T04:46:54.999Z,33.75
2018-04-23T04:47:55.002Z,33.75
2018-04-23T04:48:54.995Z,39.38
2018-04-23T04:49:54.994Z,39.38
2018-04-23T04:50:54.999Z,45.00
2018-04-23T04:51:54.996Z,56.25
2018-04-23T04:52:54.991Z,61.88
2018-04-23T04:53:54.991Z,73.13
2018-04-23T04:54:54.992Z,78.75
2018-04-23T04:55:54.988Z,73.13
2018-04-23T04:56:54.986Z,67.50
2018-04-23T04:57:54.986Z,67.50
2018-04-23T04:58:54.984Z,73.13
2018-04-23T04:59:54.984Z,73.13
2018-04-23T05:00:54.983Z,78.75
2018-04-23T05:01:54.980Z,84.38
2018-04-23T05:02:54.983Z,90.00
2018-04-23T05:03:54.982Z,90.00
2018-04-23T05:04:54.977Z,78.75
2018-04-23T05:05:54.981Z,78.75
2018-04-23T05:06:54.976Z,78.75
2018-04-23T05:07:54.977Z,78.75
2018-04-23T05:08:54.977Z,73.13
2018-04-23T05:09:54.978Z,67.50
2018-04-23T05:10:54.971Z,67.50
2018-04-23T05:11:54.970Z,84.38
2018-04-23T05:12:54.969Z,95.63
2018-04-23T05:13:54.968Z,106.88
2018-04-23T05:14:54.967Z,101.25
2018-04-23T05:15:54.966Z,95.63
2018-04-23T05:16:54.965Z,90.00
2018-04-23T05:17:54.964Z,101.25
2018-04-23T05:18:54.962Z,118.13
2018-04-23T05:19:54.965Z,146.25
2018-04-23T05:20:54.965Z,174.38
2018-04-23T05:21:54.964Z,208.13
2018-04-23T05:22:54.967Z,225.00
2018-04-23T05:23:55.002Z,241.88
2018-04-23T05:24:54.956Z,258.75
2018-04-23T05:25:54.956Z,253.13
2018-04-23T05:26:54.957Z,219.38
2018-04-23T05:27:54.955Z,202.50
2018-04-23T05:28:54.958Z,196.88
2018-04-23T05:29:54.998Z,191.25
2018-04-23T05:30:54.953Z,174.38
2018-04-23T05:31:54.952Z,202.50
2018-04-23T05:32:54.950Z,230.63
2018-04-23T05:33:54.950Z,185.63
2018-04-23T05:34:54.953Z,180.00
2018-04-23T05:35:54.953Z,202.50
2018-04-23T05:36:54.948Z,230.63
2018-04-23T05:37:54.947Z,241.88
2018-04-23T05:38:54.947Z,258.75
2018-04-23T05:39:54.947Z,270.00
2018-04-23T05:40:54.961Z,286.88
2018-04-23T05:41:54.953Z,298.13
2018-04-23T05:42:54.947Z,315.00
2018-04-23T05:43:54.947Z,331.88
2018-04-23T05:44:54.943Z,371.25
2018-04-23T05:45:54.944Z,365.63
2018-04-23T05:46:54.944Z,365.63
2018-04-23T05:47:54.945Z,399.38
2018-04-23T05:48:54.943Z,382.50
2018-04-23T05:49:54.944Z,393.75
2018-04-23T05:50:54.943Z,416.25
2018-04-23T05:51:54.941Z,421.88
2018-04-23T05:52:54.949Z,427.50
2018-04-23T05:53:54.946Z,444.38
2018-04-23T05:54:54.980Z,461.25
2018-04-23T05:55:54.946Z,455.63
2018-04-23T05:56:54.941Z,455.63
2018-04-23T05:57:54.942Z,450.00
2018-04-23T05:58:54.942Z,489.38
2018-04-23T05:59:54.944Z,466.88
2018-04-23T06:00:54.946Z,483.75
2018-04-23T06:01:54.947Z,500.63
2018-04-23T06:02:54.944Z,500.63
2018-04-23T06:03:54.945Z,461.25
2018-04-23T06:04:54.949Z,438.75
2018-04-23T06:05:54.948Z,410.63
2018-04-23T06:06:54.946Z,410.63
2018-04-23T06:07:54.948Z,410.63
2018-04-23T06:08:55.012Z,393.75
2018-04-23T06:09:54.947Z,382.50
2018-04-23T06:10:54.949Z,360.00
2018-04-23T06:11:54.950Z,343.13
2018-04-23T06:12:54.951Z,326.25
2018-04-23T06:13:54.951Z,331.88
2018-04-23T06:14:54.956Z,337.50
2018-04-23T06:15:54.958Z,348.75
2018-04-23T06:16:54.955Z,354.38
2018-04-23T06:17:54.954Z,365.63
2018-04-23T06:18:54.961Z,348.75
2018-04-23T06:19:54.963Z,337.50
2018-04-23T06:20:54.957Z,331.88
2018-04-23T06:21:54.977Z,337.50
2018-04-23T06:22:54.959Z,337.50
2018-04-23T06:23:54.960Z,337.50
2018-04-23T06:24:54.961Z,343.13
2018-04-23T06:25:54.962Z,337.50
2018-04-23T06:26:54.963Z,326.25
2018-04-23T06:27:54.966Z,331.88
2018-04-23T06:28:54.970Z,360.00
2018-04-23T06:29:54.964Z,371.25
2018-04-23T06:30:54.966Z,376.88
2018-04-23T06:31:54.967Z,376.88
2018-04-23T06:32:54.975Z,388.13
2018-04-23T06:33:54.971Z,382.50
2018-04-23T06:34:54.969Z,405.00
2018-04-23T06:35:54.970Z,461.25
2018-04-23T06:36:54.973Z,545.63
2018-04-23T06:37:54.974Z,607.50
2018-04-23T06:38:54.971Z,736.88
2018-04-23T06:39:54.973Z,793.13
2018-04-23T06:40:54.974Z,860.63
2018-04-23T06:41:54.973Z,826.88
2018-04-23T06:42:54.975Z,736.88
2018-04-23T06:43:54.976Z,725.63
2018-04-23T06:44:54.976Z,810.00
2018-04-23T06:45:55.029Z,866.25
2018-04-23T06:46:54.983Z,781.88
2018-04-23T06:47:54.985Z,770.63
2018-04-23T06:48:54.987Z,573.75
2018-04-23T06:49:54.985Z,511.88
2018-04-23T06:50:54.990Z,523.13
2018-04-23T06:51:54.991Z,528.75
2018-04-23T06:52:54.988Z,585.00
2018-04-23T06:53:54.990Z,540.00
2018-04-23T06:54:54.994Z,545.63
2018-04-23T06:55:54.996Z,540.00
2018-04-23T06:56:54.998Z,506.25
2018-04-23T06:57:54.999Z,466.88
2018-04-23T06:58:55.005Z,478.13
2018-04-23T06:59:55.009Z,528.75
2018-04-23T07:00:55.005Z,568.13
2018-04-23T07:01:55.008Z,596.25
2018-04-23T07:02:55.011Z,601.88
2018-04-23T07:03:55.013Z,624.38
2018-04-23T07:04:55.027Z,624.38
2018-04-23T07:05:55.016Z,646.88
2018-04-23T07:06:55.018Z,641.25
2018-04-23T07:07:55.020Z,646.88
2018-04-23T07:08:55.022Z,646.88
2018-04-23T07:09:55.024Z,545.63
2018-04-23T07:10:55.030Z,478.13
2018-04-23T07:11:55.031Z,466.88
2018-04-23T07:12:55.030Z,433.13
2018-04-23T07:13:55.031Z,416.25
2018-04-23T07:14:55.032Z,517.50
2018-04-23T07:15:55.033Z,528.75
2018-04-23T07:16:55.045Z,540.00
2018-04-23T07:17:55.043Z,540.00
2018-04-23T07:18:55.044Z,528.75
2018-04-23T07:19:55.041Z,500.63
2018-04-23T07:20:55.041Z,511.88
2018-04-23T07:21:55.045Z,551.25
2018-04-23T07:22:55.047Z,585.00
2018-04-23T07:23:55.047Z,646.88
2018-04-23T07:24:55.050Z,652.50
2018-04-23T07:25:55.052Z,680.63
2018-04-23T07:26:55.052Z,736.88
2018-04-23T07:27:55.055Z,748.13
2018-04-23T07:28:55.060Z,759.38
2018-04-23T07:29:55.063Z,787.50
2018-04-23T07:30:55.064Z,843.75
2018-04-23T07:31:55.066Z,832.50
2018-04-23T07:32:55.065Z,916.88
2018-04-23T07:33:55.066Z,787.50
2018-04-23T07:34:55.091Z,1040.63
2018-04-23T07:35:55.072Z,1130.63
2018-04-23T07:36:55.074Z,781.88
2018-04-23T07:37:55.077Z,990.00
2018-04-23T07:38:55.080Z,1485.00
2018-04-23T07:39:55.082Z,1513.13
2018-04-23T07:40:55.084Z,1434.38
2018-04-23T07:41:55.089Z,1614.38
2018-04-23T07:42:55.096Z,1636.88
2018-04-23T07:43:55.102Z,1743.75
2018-04-23T07:44:55.103Z,1777.50
2018-04-23T07:45:55.108Z,1833.75
2018-04-23T07:46:55.110Z,1968.75
2018-04-23T07:47:55.151Z,1946.25
2018-04-23T07:48:55.127Z,1305.00
2018-04-23T07:49:55.131Z,1226.25
2018-04-23T07:50:55.135Z,1985.63
2018-04-23T07:51:55.143Z,2221.88
2018-04-23T07:52:55.158Z,2581.88
2018-04-23T07:53:55.157Z,2390.63
2018-04-23T07:54:55.165Z,1350.00
2018-04-23T07:55:55.173Z,1085.63
2018-04-23T07:56:55.181Z,911.25
2018-04-23T07:57:55.188Z,933.75
2018-04-23T07:58:55.197Z,1119.38
2018-04-23T07:59:55.263Z,1091.25
2018-04-23T08:00:55.219Z,1445.63
2018-04-23T08:01:55.227Z,2396.25
2018-04-23T08:02:55.237Z,1125.00
2018-04-23T08:03:55.245Z,3054.38
2018-04-23T08:04:55.249Z,1867.50
2018-04-23T08:05:55.258Z,1344.38
2018-04-23T08:06:55.323Z,1141.88
2018-04-23T08:07:55.276Z,1845.00
2018-04-23T08:08:55.283Z,1400.63
2018-04-23T08:09:55.294Z,1378.13
2018-04-23T08:10:55.303Z,2115.00
2018-04-23T08:11:55.310Z,2306.25
2018-04-23T08:12:55.320Z,1423.13
2018-04-23T08:13:55.328Z,2891.25
2018-04-23T08:14:55.342Z,3375.00
2018-04-23T08:15:55.351Z,4185.00
2018-04-23T08:16:55.362Z,4567.50
2018-04-23T08:17:55.365Z,4438.13
2018-04-23T08:18:55.378Z,1856.25
2018-04-23T08:19:55.385Z,1282.50
2018-04-23T08:20:55.396Z,1451.25
2018-04-23T08:21:55.406Z,4533.75
2018-04-23T08:22:55.412Z,5101.88
2018-04-23T08:23:55.423Z,5011.88
2018-04-23T08:24:55.433Z,4854.38
2018-04-23T08:25:55.444Z,4606.88
2018-04-23T08:26:55.461Z,4280.63
2018-04-23T08:27:55.466Z,4280.63
2018-04-23T08:28:55.480Z,4353.75
2018-04-23T08:29:55.494Z,4359.38
2018-04-23T08:30:55.502Z,4438.13
2018-04-23T08:31:55.557Z,4145.63
2018-04-23T08:32:55.530Z,4055.63
2018-04-23T08:33:55.543Z,4218.75
2018-04-23T08:34:55.557Z,3549.38
2018-04-23T08:35:55.574Z,3841.88
2018-04-23T08:36:55.581Z,3217.50
2018-04-23T08:37:55.596Z,4050.00
2018-04-23T08:38:55.611Z,4370.63
2018-04-23T08:39:55.625Z,4455.00
2018-04-23T08:40:55.640Z,4173.75
2018-04-23T08:41:55.662Z,4072.50
2018-04-23T08:42:55.674Z,4078.13
2018-04-23T08:43:55.722Z,3993.75
2018-04-23T08:44:55.702Z,4106.25
2018-04-23T08:45:55.717Z,3965.63
2018-04-23T08:46:55.738Z,4117.50
2018-04-23T08:47:55.754Z,4196.25
2018-04-23T08:48:55.820Z,4083.75
2018-04-23T08:49:55.782Z,3971.25
2018-04-23T08:50:55.799Z,3965.63
2018-04-23T08:51:55.815Z,3943.13
2018-04-23T08:52:55.839Z,3875.63
2018-04-23T08:53:55.852Z,3965.63
2018-04-23T08:54:55.868Z,4021.88
2018-04-23T08:55:55.910Z,4066.88
2018-04-23T08:56:55.904Z,4033.13
2018-04-23T08:57:55.919Z,3943.13
2018-04-23T08:58:55.935Z,3909.38
2018-04-23T08:59:55.988Z,3982.50
2018-04-23T09:00:55.971Z,3864.38
2018-04-23T09:01:55.990Z,3858.75
2018-04-23T09:02:56.010Z,3875.63
2018-04-23T09:03:56.028Z,3937.50
2018-04-23T09:04:56.047Z,4100.63
2018-04-23T09:05:56.064Z,4190.63
2018-04-23T09:06:56.079Z,4134.38
2018-04-23T09:07:56.098Z,4235.63
2018-04-23T09:08:56.116Z,3898.13
2018-04-23T09:09:56.136Z,3960.00
2018-04-23T09:10:56.155Z,4066.88
2018-04-23T09:11:56.172Z,4055.63
2018-04-23T09:12:56.194Z,4365.00
2018-04-23T09:13:56.214Z,4567.50
2018-04-23T09:14:56.238Z,4314.38
2018-04-23T09:15:56.249Z,4359.38
2018-04-23T09:16:56.271Z,4449.38
2018-04-23T09:17:56.364Z,4708.13
2018-04-23T09:18:56.307Z,4978.13
2018-04-23T09:19:56.326Z,4837.50
2018-04-23T09:20:56.349Z,4983.75
2018-04-23T09:21:56.366Z,5405.63
2018-04-23T09:22:56.385Z,5439.38
2018-04-23T09:23:56.406Z,5180.63
2018-04-23T09:24:56.424Z,4725.00
2018-04-23T09:25:56.445Z,4404.38
2018-04-23T09:26:56.475Z,4331.25
2018-04-23T09:27:56.491Z,4308.75
2018-04-23T09:28:56.505Z,4353.75
2018-04-23T09:29:56.529Z,4336.88
2018-04-23T09:30:56.549Z,4168.13
2018-04-23T09:31:56.570Z,4173.75
2018-04-23T09:32:56.586Z,4196.25
2018-04-23T09:33:56.607Z,4235.63
2018-04-23T09:34:56.628Z,4410.00
2018-04-23T09:35:56.650Z,4432.50
2018-04-23T09:36:56.668Z,4443.75
2018-04-23T09:37:56.690Z,4556.25
2018-04-23T09:38:56.737Z,2458.13
2018-04-23T09:39:56.733Z,4342.50
2018-04-23T09:40:56.760Z,4584.38
2018-04-23T09:41:56.776Z,4663.13
2018-04-23T09:42:56.797Z,4612.50
2018-04-23T09:43:56.820Z,4623.75
2018-04-23T09:44:56.840Z,4989.38
2018-04-23T09:45:56.861Z,4629.38
2018-04-23T09:46:56.880Z,928.13
2018-04-23T09:47:56.900Z,1957.50
2018-04-23T09:48:56.924Z,810.00
2018-04-23T09:49:56.946Z,5051.25
2018-04-23T09:50:56.962Z,4854.38
2018-04-23T09:51:56.984Z,978.75
2018-04-23T09:52:57.002Z,4837.50
2018-04-23T09:53:57.023Z,911.25
2018-04-23T09:54:57.043Z,883.13
2018-04-23T09:55:57.062Z,4961.25
2018-04-23T09:56:57.081Z,1344.38
2018-04-23T09:57:57.099Z,4365.00
2018-04-23T09:58:57.121Z,697.50
2018-04-23T09:59:57.140Z,1614.38
2018-04-23T10:00:57.153Z,4573.13
2018-04-23T10:01:57.172Z,1001.25
2018-04-23T10:02:57.194Z,4848.75
2018-04-23T10:03:57.213Z,4674.38
2018-04-23T10:04:57.224Z,725.63
2018-04-23T10:05:57.242Z,1968.75
2018-04-23T10:06:57.259Z,4353.75
2018-04-23T10:07:57.276Z,4196.25
2018-04-23T10:08:57.292Z,4151.25
2018-04-23T10:09:57.310Z,4095.00
2018-04-23T10:10:57.331Z,4201.88
2018-04-23T10:11:57.349Z,4213.13
2018-04-23T10:12:57.367Z,3673.13
2018-04-23T10:13:57.378Z,3195.00
2018-04-23T10:14:57.396Z,3155.63
2018-04-23T10:15:57.415Z,3093.75
2018-04-23T10:16:57.432Z,1203.75
2018-04-23T10:17:57.453Z,2947.50
2018-04-23T10:18:57.468Z,3105.00
2018-04-23T10:19:57.487Z,1215.00
2018-04-23T10:20:57.565Z,2857.50
2018-04-23T10:21:57.525Z,2919.38
2018-04-23T10:22:57.545Z,2902.50
2018-04-23T10:23:57.566Z,2964.38
2018-04-23T10:24:57.579Z,2255.63
2018-04-23T10:25:57.640Z,3358.13
2018-04-23T10:26:57.616Z,4415.63
2018-04-23T10:27:57.634Z,5135.63
2018-04-23T10:28:57.657Z,5388.75
2018-04-23T10:29:57.676Z,5754.38
2018-04-23T10:30:57.690Z,2221.88
2018-04-23T10:31:57.709Z,3639.38
2018-04-23T10:32:57.727Z,3375.00
2018-04-23T10:33:57.749Z,5568.75
2018-04-23T10:34:57.766Z,1113.75
2018-04-23T10:35:57.786Z,1170.00
2018-04-23T10:36:57.805Z,3532.50
2018-04-23T10:37:57.824Z,1434.38
2018-04-23T10:38:57.888Z,1383.75
2018-04-23T10:39:57.863Z,832.50
2018-04-23T10:40:57.881Z,843.75
2018-04-23T10:41:57.899Z,2154.38
2018-04-23T10:42:57.916Z,4320.00
2018-04-23T10:43:57.938Z,4308.75
2018-04-23T10:44:57.949Z,4545.00
2018-04-23T10:45:57.962Z,4168.13
2018-04-23T10:46:57.984Z,1153.13
2018-04-23T10:47:57.997Z,714.38
2018-04-23T10:48:58.013Z,1215.00
2018-04-23T10:49:58.034Z,4640.63
2018-04-23T10:50:58.047Z,1985.63
2018-04-23T10:51:58.061Z,810.00
2018-04-23T10:52:58.077Z,810.00
2018-04-23T10:53:58.092Z,945.00
2018-04-23T10:54:58.111Z,5101.88
2018-04-23T10:55:58.128Z,4038.75
2018-04-23T10:56:58.138Z,4910.63
2018-04-23T10:57:58.155Z,939.38
2018-04-23T10:58:58.170Z,990.00
2018-04-23T10:59:58.187Z,2176.88
2018-04-23T11:00:58.201Z,5006.25
2018-04-23T11:01:58.220Z,4848.75
2018-04-23T11:02:58.228Z,4561.88
2018-04-23T11:03:58.242Z,4927.50
2018-04-23T11:04:58.257Z,4882.50
2018-04-23T11:05:58.272Z,4320.00
2018-04-23T11:06:58.286Z,4213.13
2018-04-23T11:07:58.305Z,4421.25
2018-04-23T11:08:58.316Z,4556.25
2018-04-23T11:09:58.332Z,4595.63
2018-04-23T11:10:58.347Z,4342.50
2018-04-23T11:11:58.362Z,4674.38
2018-04-23T11:12:58.381Z,4696.88
2018-04-23T11:13:58.398Z,725.63
2018-04-23T11:14:58.414Z,545.63
2018-04-23T11:15:58.424Z,928.13
2018-04-23T11:16:58.443Z,495.00
2018-04-23T11:17:58.455Z,416.25
2018-04-23T11:18:58.475Z,5107.50
2018-04-23T11:19:58.487Z,849.38
2018-04-23T11:20:58.505Z,3127.50
2018-04-23T11:21:58.519Z,1074.38
2018-04-23T11:22:58.531Z,759.38
2018-04-23T11:23:58.545Z,703.13
2018-04-23T11:24:58.564Z,669.38
2018-04-23T11:25:58.576Z,658.13
2018-04-23T11:26:58.588Z,652.50
2018-04-23T11:27:58.602Z,663.75
2018-04-23T11:28:58.621Z,658.13
2018-04-23T11:29:58.626Z,663.75
2018-04-23T11:30:58.642Z,658.13
2018-04-23T11:31:58.652Z,635.63
2018-04-23T11:32:58.662Z,618.75
2018-04-23T11:33:58.674Z,601.88
2018-04-23T11:34:58.691Z,601.88
2018-04-23T11:35:58.701Z,607.50
2018-04-23T11:36:58.707Z,590.63
2018-04-23T11:37:58.718Z,585.00
2018-04-23T11:38:58.732Z,573.75
2018-04-23T11:39:58.745Z,585.00
2018-04-23T11:40:58.748Z,596.25
2018-04-23T11:41:58.758Z,613.13
2018-04-23T11:42:58.769Z,601.88
2018-04-23T11:43:58.778Z,590.63
2018-04-23T11:44:58.787Z,534.38
2018-04-23T11:45:58.795Z,585.00
2018-04-23T11:46:58.803Z,545.63
2018-04-23T11:47:58.813Z,618.75
2018-04-23T11:48:58.820Z,618.75
2018-04-23T11:49:58.829Z,607.50
2018-04-23T11:50:58.836Z,613.13
2018-04-23T11:51:58.845Z,618.75
2018-04-23T11:52:58.856Z,579.38
2018-04-23T11:53:58.863Z,478.13
2018-04-23T11:54:58.870Z,590.63
2018-04-23T11:55:58.875Z,686.25
2018-04-23T11:56:58.886Z,500.63
2018-04-23T11:57:58.893Z,601.88
2018-04-23T11:58:58.897Z,646.88
2018-04-23T11:59:58.904Z,590.63
2018-04-23T12:00:58.910Z,523.13
2018-04-23T12:01:58.919Z,455.63
2018-04-23T12:02:58.925Z,466.88
2018-04-23T12:03:58.935Z,607.50
2018-04-23T12:04:58.939Z,601.88
2018-04-23T12:05:58.946Z,759.38
2018-04-23T12:06:58.955Z,703.13
2018-04-23T12:07:58.963Z,618.75
2018-04-23T12:08:58.965Z,568.13
2018-04-23T12:09:58.970Z,540.00
2018-04-23T12:10:58.983Z,545.63
2018-04-23T12:11:58.988Z,528.75
2018-04-23T12:12:58.991Z,444.38
2018-04-23T12:13:58.999Z,568.13
2018-04-23T12:14:59.003Z,461.25
2018-04-23T12:15:59.012Z,466.88
2018-04-23T12:16:59.015Z,630.00
2018-04-23T12:17:59.023Z,652.50
2018-04-23T12:18:59.032Z,770.63
2018-04-23T12:19:59.043Z,675.00
2018-04-23T12:20:59.039Z,579.38
2018-04-23T12:21:59.047Z,511.88
2018-04-23T12:22:59.053Z,399.38
2018-04-23T12:23:59.059Z,388.13
2018-04-23T12:24:59.064Z,360.00
2018-04-23T12:25:59.070Z,455.63
2018-04-23T12:26:59.077Z,540.00
2018-04-23T12:27:59.082Z,630.00
2018-04-23T12:28:59.089Z,675.00
2018-04-23T12:29:59.097Z,585.00
2018-04-23T12:30:59.103Z,534.38
2018-04-23T12:31:59.113Z,506.25
2018-04-23T12:32:59.109Z,495.00
2018-04-23T12:33:59.116Z,551.25
2018-04-23T12:34:59.122Z,545.63
2018-04-23T12:35:59.127Z,551.25
2018-04-23T12:36:59.137Z,545.63
2018-04-23T12:37:59.142Z,528.75
2018-04-23T12:38:59.145Z,523.13
2018-04-23T12:39:59.150Z,506.25
2018-04-23T12:40:59.154Z,455.63